Time;durP1;ratioP1;P1;durP2;ratioP2;P2;SDS_P1;SDS_P2;PMS_P1;PMS_P2;Temp;Humidity;BMP_temperature;BMP_pressure;BME280_temperature;BME280_humidity;BME280_pressure;Samples;Min_cycle;Max_cycle;Signal;HPM_P1;HPM_P2
2023/03/20 00:00:33;;;;;;;15.05;8.38;;;;;;;;;;5037302;28;20025;-73
2023/03/20 00:03:00;;;;;;;15.23;7.72;;;;;;;;;;5037243;28;20033;-72
2023/03/20 00:05:27;;;;;;;13.82;8.10;;;;;;;;;;5036201;28;20022;-73
2023/03/20 00:07:54;;;;;;;13.77;7.85;;;;;;;;;;5036924;28;20104;-72
2023/03/20 00:10:21;;;;;;;20.73;7.65;;;;;;;;;;5036977;28;20071;-73
2023/03/20 00:12:50;;;;;;;13.95;8.95;;;;;;;;;;5036910;28;20037;-73
2023/03/20 00:15:23;;;;;;;14.48;8.13;;;;;;;;;;5036793;28;20057;-72
2023/03/20 00:17:48;;;;;;;15.93;9.05;;;;;;;;;;5035218;28;20029;-71
2023/03/20 00:20:15;;;;;;;16.57;8.87;;;;;;;;;;5035523;28;20377;-71
2023/03/20 00:22:40;;;;;;;15.50;8.98;;;;;;;;;;5036605;28;20263;-72
2023/03/20 00:25:06;;;;;;;15.52;9.30;;;;;;;;;;5036419;28;20036;-73
2023/03/20 00:27:31;;;;;;;14.38;8.93;;;;;;;;;;5036343;28;20033;-73
2023/03/20 00:29:57;;;;;;;18.52;9.35;;;;;;;;;;5036342;28;20100;-72
2023/03/20 00:32:22;;;;;;;15.88;9.45;;;;;;;;;;5036538;28;20384;-72
2023/03/20 00:34:47;;;;;;;15.57;9.07;;;;;;;;;;5034945;28;20397;-73
2023/03/20 00:37:12;;;;;;;16.65;10.10;;;;;;;;;;5036244;28;20477;-73
2023/03/20 00:39:39;;;;;;;14.90;8.67;;;;;;;;;;5036311;28;20179;-73
2023/03/20 00:42:06;;;;;;;16.42;9.20;;;;;;;;;;5036045;28;20752;-71
2023/03/20 00:44:37;;;;;;;15.75;9.52;;;;;;;;;;5034866;28;20029;-73
2023/03/20 00:47:15;;;;;;;19.90;9.48;;;;;;;;;;5036262;28;20033;-73
2023/03/20 00:49:41;;;;;;;18.30;10.40;;;;;;;;;;5035920;28;20091;-72
2023/03/20 00:52:11;;;;;;;15.95;9.55;;;;;;;;;;5036057;28;20033;-72
2023/03/20 00:54:36;;;;;;;15.07;9.68;;;;;;;;;;5036546;28;20026;-72
2023/03/20 00:57:06;;;;;;;17.33;10.53;;;;;;;;;;5035934;28;20462;-71
2023/03/20 00:59:36;;;;;;;17.35;9.48;;;;;;;;;;5036098;28;20304;-72
2023/03/20 01:02:02;;;;;;;18.65;10.18;;;;;;;;;;5035871;28;20037;-71
2023/03/20 01:04:37;;;;;;;19.35;10.48;;;;;;;;;;5035957;28;20096;-72
2023/03/20 01:07:03;;;;;;;17.13;10.63;;;;;;;;;;5035971;28;20087;-73
2023/03/20 01:09:28;;;;;;;19.85;10.85;;;;;;;;;;5034714;28;20029;-71
2023/03/20 01:11:54;;;;;;;17.92;10.38;;;;;;;;;;5035632;28;20021;-72
2023/03/20 01:14:19;;;;;;;17.30;11.32;;;;;;;;;;5035643;28;20021;-72
2023/03/20 01:16:44;;;;;;;17.60;11.07;;;;;;;;;;5035738;28;20485;-72
2023/03/20 01:19:13;;;;;;;19.08;11.15;;;;;;;;;;5034445;28;20036;-72
2023/03/20 01:21:38;;;;;;;17.90;10.82;;;;;;;;;;5035712;28;20500;-72
2023/03/20 01:24:03;;;;;;;17.25;10.93;;;;;;;;;;5035470;28;20025;-72
2023/03/20 01:26:42;;;;;;;20.83;11.63;;;;;;;;;;5035652;28;20102;-71
2023/03/20 01:29:20;;;;;;;19.30;11.60;;;;;;;;;;5035209;28;20026;-72
2023/03/20 01:31:45;;;;;;;18.20;12.00;;;;;;;;;;5035144;28;20025;-71
2023/03/20 01:34:11;;;;;;;22.80;12.23;;;;;;;;;;5035071;28;20564;-71
2023/03/20 01:36:36;;;;;;;18.38;12.00;;;;;;;;;;5034956;28;20033;-72
2023/03/20 01:39:02;;;;;;;22.02;12.25;;;;;;;;;;5033757;28;20370;-72
2023/03/20 01:41:28;;;;;;;19.15;11.65;;;;;;;;;;5035028;28;20056;-72
2023/03/20 01:43:53;;;;;;;19.52;11.43;;;;;;;;;;5032882;28;20500;-72
2023/03/20 01:46:24;;;;;;;20.08;11.85;;;;;;;;;;5033999;28;20616;-72
2023/03/20 01:48:49;;;;;;;18.73;12.00;;;;;;;;;;5033206;28;20024;-72
2023/03/20 01:51:15;;;;;;;22.53;12.10;;;;;;;;;;5033476;28;20033;-72
2023/03/20 01:53:42;;;;;;;17.35;11.48;;;;;;;;;;5033250;28;20094;-72
2023/03/20 01:56:07;;;;;;;27.40;12.23;;;;;;;;;;5034492;28;20480;-72
2023/03/20 01:58:40;;;;;;;20.50;12.25;;;;;;;;;;5034121;28;20057;-72
2023/03/20 02:01:08;;;;;;;18.60;11.95;;;;;;;;;;5034659;28;20049;-73
2023/03/20 02:03:34;;;;;;;22.38;11.95;;;;;;;;;;5034921;28;20484;-72
2023/03/20 02:05:59;;;;;;;19.67;11.73;;;;;;;;;;5034454;28;20056;-70
2023/03/20 02:08:28;;;;;;;22.38;13.30;;;;;;;;;;5034505;28;20392;-71
2023/03/20 02:10:54;;;;;;;17.88;11.70;;;;;;;;;;5034473;28;20037;-72
2023/03/20 02:13:20;;;;;;;19.25;12.00;;;;;;;;;;5034423;28;20392;-72
2023/03/20 02:16:13;;;;;;;20.13;12.50;;;;;;;;;;5034298;28;20025;-72
2023/03/20 02:18:41;;;;;;;17.92;11.40;;;;;;;;;;5033519;28;20037;-72
2023/03/20 02:21:37;;;;;;;21.23;12.52;;;;;;;;;;5032682;28;20098;-72
2023/03/20 02:24:30;;;;;;;21.27;12.02;;;;;;;;;;5034514;28;20029;-72
2023/03/20 02:27:33;;;;;;;19.92;12.50;;;;;;;;;;5034513;28;20025;-71
2023/03/20 02:30:26;;;;;;;19.17;11.65;;;;;;;;;;5034065;28;20025;-72
2023/03/20 02:33:24;;;;;;;21.17;12.68;;;;;;;;;;5034649;28;20032;-72
2023/03/20 02:36:36;;;;;;;18.27;11.60;;;;;;;;;;5034484;28;20444;-72
2023/03/20 02:39:10;;;;;;;20.80;11.65;;;;;;;;;;5011987;28;20045;-72
2023/03/20 02:41:53;;;;;;;21.17;12.43;;;;;;;;;;4995630;28;20026;-72
2023/03/20 02:44:21;;;;;;;19.23;12.23;;;;;;;;;;5026025;28;20434;-72
2023/03/20 02:47:02;;;;;;;21.63;12.68;;;;;;;;;;5033842;28;20043;-72
2023/03/20 02:49:43;;;;;;;21.35;12.63;;;;;;;;;;5032388;28;20025;-72
2023/03/20 02:52:21;;;;;;;21.95;12.18;;;;;;;;;;5033655;28;20025;-72
2023/03/20 02:55:09;;;;;;;19.75;12.43;;;;;;;;;;5032273;28;20032;-72
2023/03/20 02:57:44;;;;;;;23.45;12.35;;;;;;;;;;5033424;28;20504;-73
2023/03/20 03:00:36;;;;;;;20.80;12.00;;;;;;;;;;5033895;28;20038;-72
2023/03/20 03:03:10;;;;;;;19.45;11.82;;;;;;;;;;5032245;28;20396;-72
2023/03/20 03:05:41;;;;;;;19.83;12.20;;;;;;;;;;5033593;28;20068;-72
2023/03/20 03:08:09;;;;;;;19.88;12.38;;;;;;;;;;5033387;28;20071;-72
2023/03/20 03:10:38;;;;;;;18.67;12.50;;;;;;;;;;5033722;28;20481;-72
2023/03/20 03:13:10;;;;;;;21.38;13.27;;;;;;;;;;5033341;28;20075;-71
2023/03/20 03:15:42;;;;;;;19.55;13.02;;;;;;;;;;5033439;28;20060;-72
2023/03/20 03:18:14;;;;;;;22.20;12.63;;;;;;;;;;5033279;28;20025;-72
2023/03/20 03:20:42;;;;;;;20.77;12.77;;;;;;;;;;5033367;28;20053;-71
2023/03/20 03:23:19;;;;;;;23.15;12.30;;;;;;;;;;5033172;28;20028;-71
2023/03/20 03:25:45;;;;;;;22.38;13.65;;;;;;;;;;5033174;28;20055;-72
2023/03/20 03:28:36;;;;;;;24.00;13.80;;;;;;;;;;5033039;28;20029;-72
2023/03/20 03:31:04;;;;;;;26.75;13.48;;;;;;;;;;5022908;28;20041;-72
2023/03/20 03:33:31;;;;;;;20.63;12.80;;;;;;;;;;5032390;28;20021;-72
2023/03/20 03:36:15;;;;;;;18.65;12.85;;;;;;;;;;5032855;28;20455;-72
2023/03/20 03:39:11;;;;;;;19.75;12.15;;;;;;;;;;5033647;28;20021;-72
2023/03/20 03:41:42;;;;;;;23.80;12.82;;;;;;;;;;5033255;28;20116;-72
2023/03/20 03:44:19;;;;;;;18.75;12.05;;;;;;;;;;5032925;28;20036;-72
2023/03/20 03:46:53;;;;;;;23.10;12.68;;;;;;;;;;5033188;28;20087;-72
2023/03/20 03:49:26;;;;;;;18.70;12.18;;;;;;;;;;5032943;28;20032;-72
2023/03/20 03:51:55;;;;;;;20.70;12.88;;;;;;;;;;5033544;28;20025;-71
2023/03/20 03:54:52;;;;;;;18.80;11.95;;;;;;;;;;5033616;28;20409;-71
2023/03/20 03:57:22;;;;;;;21.05;12.45;;;;;;;;;;5032826;28;20025;-72
2023/03/20 03:59:50;;;;;;;22.80;11.63;;;;;;;;;;5033119;28;20029;-72
2023/03/20 04:02:19;;;;;;;21.02;12.32;;;;;;;;;;5033083;28;20030;-72
2023/03/20 04:04:48;;;;;;;19.55;11.80;;;;;;;;;;5033090;28;20021;-72
2023/03/20 04:07:14;;;;;;;17.45;11.48;;;;;;;;;;5033005;28;20033;-72
2023/03/20 04:09:39;;;;;;;22.02;11.80;;;;;;;;;;5032963;28;20022;-72
2023/03/20 04:12:05;;;;;;;21.73;11.98;;;;;;;;;;5032692;28;20485;-72
2023/03/20 04:14:31;;;;;;;18.55;10.77;;;;;;;;;;5032627;28;20036;-72
2023/03/20 04:16:56;;;;;;;21.48;11.40;;;;;;;;;;5032623;28;20048;-72
2023/03/20 04:19:21;;;;;;;17.87;11.23;;;;;;;;;;5032685;28;20543;-72
2023/03/20 04:21:46;;;;;;;17.50;10.80;;;;;;;;;;5032620;28;20765;-72
2023/03/20 04:24:11;;;;;;;16.00;10.90;;;;;;;;;;5033066;28;20744;-73
2023/03/20 04:26:38;;;;;;;19.65;10.30;;;;;;;;;;5031846;28;20753;-72
2023/03/20 04:29:04;;;;;;;18.30;11.00;;;;;;;;;;5031285;28;20044;-73
2023/03/20 04:31:29;;;;;;;20.45;10.93;;;;;;;;;;5032492;28;20025;-71
2023/03/20 04:33:54;;;;;;;21.63;11.55;;;;;;;;;;5032612;28;20083;-71
2023/03/20 04:36:20;;;;;;;23.33;13.43;;;;;;;;;;5032396;28;20052;-71
2023/03/20 04:38:45;;;;;;;18.75;12.55;;;;;;;;;;5032473;28;20044;-72
2023/03/20 04:41:10;;;;;;;20.08;12.55;;;;;;;;;;5031170;28;20029;-72
2023/03/20 04:43:35;;;;;;;22.75;14.45;;;;;;;;;;5032504;28;20057;-72
2023/03/20 04:46:01;;;;;;;24.77;15.43;;;;;;;;;;5036511;28;20385;-73
2023/03/20 04:48:26;;;;;;;22.90;14.35;;;;;;;;;;5036314;28;20029;-72
2023/03/20 04:50:52;;;;;;;22.75;14.35;;;;;;;;;;5035929;28;20104;-73
2023/03/20 04:53:18;;;;;;;23.05;14.43;;;;;;;;;;5035981;28;20510;-72
2023/03/20 04:55:44;;;;;;;20.25;13.85;;;;;;;;;;5034347;28;20033;-72
2023/03/20 04:58:10;;;;;;;18.10;11.93;;;;;;;;;;5034729;28;20079;-73
2023/03/20 05:00:35;;;;;;;22.95;12.75;;;;;;;;;;5036010;28;20041;-72
2023/03/20 05:03:00;;;;;;;18.63;10.83;;;;;;;;;;5035718;28;20028;-72
2023/03/20 05:05:26;;;;;;;18.27;10.93;;;;;;;;;;5036186;28;20267;-71
2023/03/20 05:07:51;;;;;;;16.83;10.95;;;;;;;;;;5035661;28;20028;-71
2023/03/20 05:10:17;;;;;;;22.25;11.82;;;;;;;;;;5035762;28;20392;-72
2023/03/20 05:12:42;;;;;;;16.55;10.18;;;;;;;;;;5035491;28;20481;-72
2023/03/20 05:15:08;;;;;;;16.25;10.15;;;;;;;;;;5035765;28;20021;-72
2023/03/20 05:17:33;;;;;;;19.08;11.07;;;;;;;;;;5034104;28;20033;-72
2023/03/20 05:19:58;;;;;;;17.75;11.20;;;;;;;;;;5035489;28;20021;-72
2023/03/20 05:22:24;;;;;;;18.17;10.32;;;;;;;;;;5035736;28;20029;-72
2023/03/20 05:24:49;;;;;;;18.70;10.35;;;;;;;;;;5035302;28;20021;-72
2023/03/20 05:27:15;;;;;;;18.58;11.10;;;;;;;;;;5035217;28;20055;-72
2023/03/20 05:29:40;;;;;;;17.40;10.23;;;;;;;;;;5035206;28;20489;-72
2023/03/20 05:32:05;;;;;;;20.45;11.00;;;;;;;;;;5035525;28;20477;-72
2023/03/20 05:34:30;;;;;;;19.52;12.15;;;;;;;;;;5035138;28;20080;-71
2023/03/20 05:36:56;;;;;;;16.33;10.77;;;;;;;;;;5035028;28;20025;-71
2023/03/20 05:39:21;;;;;;;17.98;11.10;;;;;;;;;;5035037;28;20352;-72
2023/03/20 05:41:46;;;;;;;21.40;10.50;;;;;;;;;;5035475;28;20033;-71
2023/03/20 05:44:11;;;;;;;18.23;10.90;;;;;;;;;;5035216;28;20354;-72
2023/03/20 05:46:37;;;;;;;14.93;10.10;;;;;;;;;;5035137;28;20021;-72
2023/03/20 05:49:02;;;;;;;17.13;9.52;;;;;;;;;;5034978;28;20262;-72
2023/03/20 05:51:27;;;;;;;17.58;9.68;;;;;;;;;;5035091;28;20451;-72
2023/03/20 05:53:52;;;;;;;16.20;9.37;;;;;;;;;;5034645;28;20021;-72
2023/03/20 05:56:18;;;;;;;12.93;8.20;;;;;;;;;;5032614;28;20353;-72
2023/03/20 05:58:43;;;;;;;16.38;9.10;;;;;;;;;;5034704;28;20037;-72
2023/03/20 06:01:08;;;;;;;16.93;9.40;;;;;;;;;;5034873;28;20109;-72
2023/03/20 06:03:33;;;;;;;17.13;9.23;;;;;;;;;;5034560;28;20258;-72
2023/03/20 06:05:59;;;;;;;18.13;9.07;;;;;;;;;;5033232;28;20029;-72
2023/03/20 06:08:24;;;;;;;17.60;8.98;;;;;;;;;;5034901;28;20250;-72
2023/03/20 06:10:51;;;;;;;15.98;8.85;;;;;;;;;;5034776;28;20021;-72
2023/03/20 06:13:17;;;;;;;15.00;8.82;;;;;;;;;;5034509;28;20025;-72
2023/03/20 06:15:42;;;;;;;15.00;7.63;;;;;;;;;;5034374;28;20100;-72
2023/03/20 06:18:07;;;;;;;11.93;7.20;;;;;;;;;;5034194;28;20619;-72
2023/03/20 06:20:32;;;;;;;15.50;6.83;;;;;;;;;;5034231;28;20514;-72
2023/03/20 06:22:58;;;;;;;12.27;7.30;;;;;;;;;;5034423;28;20803;-72
2023/03/20 06:25:23;;;;;;;10.05;5.55;;;;;;;;;;5034645;28;20714;-72
2023/03/20 06:27:48;;;;;;;8.98;5.68;;;;;;;;;;5032852;28;20060;-72
2023/03/20 06:30:15;;;;;;;8.85;5.10;;;;;;;;;;5034071;28;20063;-72
2023/03/20 06:32:40;;;;;;;15.25;5.43;;;;;;;;;;5034407;28;20021;-72
2023/03/20 06:35:06;;;;;;;8.70;4.38;;;;;;;;;;5034117;28;20030;-76
2023/03/20 06:37:31;;;;;;;6.60;4.35;;;;;;;;;;5033847;28;20052;-73
2023/03/20 06:39:57;;;;;;;7.38;4.00;;;;;;;;;;5033790;28;20021;-72
2023/03/20 06:42:23;;;;;;;6.30;4.00;;;;;;;;;;5032431;28;20025;-73
2023/03/20 06:44:48;;;;;;;8.05;3.20;;;;;;;;;;5034113;28;20538;-73
2023/03/20 06:47:13;;;;;;;5.80;3.17;;;;;;;;;;5033912;28;20033;-72
2023/03/20 06:49:38;;;;;;;4.03;2.90;;;;;;;;;;5033724;28;20259;-71
2023/03/20 06:52:05;;;;;;;5.05;2.92;;;;;;;;;;5033441;28;20036;-71
2023/03/20 06:54:30;;;;;;;4.20;2.70;;;;;;;;;;5033535;28;20048;-71
2023/03/20 06:56:55;;;;;;;4.97;2.50;;;;;;;;;;5033392;28;20485;-71
2023/03/20 06:59:21;;;;;;;7.47;2.60;;;;;;;;;;5033497;28;20103;-71
2023/03/20 07:01:46;;;;;;;6.25;2.30;;;;;;;;;;5033441;28;20289;-71
2023/03/20 07:04:11;;;;;;;3.67;2.27;;;;;;;;;;5033557;28;20057;-71
2023/03/20 07:06:37;;;;;;;5.37;2.90;;;;;;;;;;5033333;28;20344;-73
2023/03/20 07:09:03;;;;;;;6.28;2.80;;;;;;;;;;5032675;28;20286;-72
2023/03/20 07:11:28;;;;;;;4.97;2.90;;;;;;;;;;5033408;28;20048;-73
2023/03/20 07:13:54;;;;;;;4.00;2.90;;;;;;;;;;5032413;28;20050;-71
2023/03/20 07:16:20;;;;;;;5.35;3.17;;;;;;;;;;5033709;28;20432;-71
2023/03/20 07:18:46;;;;;;;5.05;2.58;;;;;;;;;;5033575;28;20087;-72
2023/03/20 07:21:17;;;;;;;4.75;2.38;;;;;;;;;;5033297;28;20025;-72
2023/03/20 07:23:42;;;;;;;3.92;2.40;;;;;;;;;;5033437;28;20480;-72
2023/03/20 07:26:07;;;;;;;3.20;1.77;;;;;;;;;;5032984;28;20071;-72
2023/03/20 07:28:33;;;;;;;8.30;2.30;;;;;;;;;;5031702;28;20263;-72
2023/03/20 07:30:58;;;;;;;3.60;2.10;;;;;;;;;;5031669;28;20258;-72
2023/03/20 07:33:23;;;;;;;5.97;2.20;;;;;;;;;;5033230;28;20274;-71
2023/03/20 07:35:52;;;;;;;8.15;2.63;;;;;;;;;;5032910;28;20293;-71
2023/03/20 07:38:18;;;;;;;3.13;2.10;;;;;;;;;;5032757;28;20025;-72
2023/03/20 07:40:43;;;;;;;4.20;2.55;;;;;;;;;;5032863;28;20032;-72
2023/03/20 07:43:08;;;;;;;3.97;2.10;;;;;;;;;;5033078;28;20021;-71
2023/03/20 07:45:33;;;;;;;5.13;2.20;;;;;;;;;;5033154;28;20309;-71
2023/03/20 07:47:59;;;;;;;2.50;2.03;;;;;;;;;;5032701;28;20251;-72
2023/03/20 07:50:24;;;;;;;4.25;2.60;;;;;;;;;;5033084;28;20262;-72
2023/03/20 07:52:53;;;;;;;6.70;2.40;;;;;;;;;;5033324;28;20025;-72
2023/03/20 07:55:18;;;;;;;3.35;2.45;;;;;;;;;;5032934;28;20030;-73
2023/03/20 07:57:43;;;;;;;4.53;2.50;;;;;;;;;;5033164;28;20395;-71
2023/03/20 08:00:10;;;;;;;6.68;2.67;;;;;;;;;;5032658;28;20075;-72
2023/03/20 08:02:35;;;;;;;3.78;2.40;;;;;;;;;;5032623;28;20029;-73
2023/03/20 08:05:00;;;;;;;20.23;2.85;;;;;;;;;;5033104;28;20461;-72
2023/03/20 08:07:28;;;;;;;5.47;2.72;;;;;;;;;;5032536;28;20025;-72
2023/03/20 08:09:53;;;;;;;4.47;2.85;;;;;;;;;;5032543;28;20496;-72
2023/03/20 08:12:18;;;;;;;5.88;3.00;;;;;;;;;;5032819;28;20068;-71
2023/03/20 08:14:44;;;;;;;4.80;2.97;;;;;;;;;;5032343;28;20037;-71
2023/03/20 08:17:09;;;;;;;6.13;2.92;;;;;;;;;;5032314;28;20254;-72
2023/03/20 08:19:37;;;;;;;4.68;3.25;;;;;;;;;;5034103;28;20029;-71
2023/03/20 08:22:02;;;;;;;5.47;3.20;;;;;;;;;;5036443;28;20082;-71
2023/03/20 08:24:28;;;;;;;5.50;3.17;;;;;;;;;;5035142;28;20021;-72
2023/03/20 08:26:54;;;;;;;7.82;3.30;;;;;;;;;;5035938;28;20147;-71
2023/03/20 08:29:20;;;;;;;5.45;3.28;;;;;;;;;;5034883;28;20025;-71
2023/03/20 08:31:45;;;;;;;5.80;3.20;;;;;;;;;;5036423;28;20028;-71
2023/03/20 08:34:10;;;;;;;7.45;3.28;;;;;;;;;;5036290;28;20064;-71
2023/03/20 08:36:36;;;;;;;4.97;3.15;;;;;;;;;;5036226;28;20068;-71
2023/03/20 08:39:01;;;;;;;4.18;3.00;;;;;;;;;;5036268;28;20033;-71
2023/03/20 08:41:26;;;;;;;8.63;3.35;;;;;;;;;;5035845;28;20021;-71
2023/03/20 08:43:52;;;;;;;7.20;3.30;;;;;;;;;;5034809;28;20029;-71
2023/03/20 08:46:17;;;;;;;4.23;3.10;;;;;;;;;;5036250;28;20262;-71
2023/03/20 08:48:42;;;;;;;6.32;2.95;;;;;;;;;;5036171;28;20269;-71
2023/03/20 08:51:07;;;;;;;4.50;2.83;;;;;;;;;;5035805;28;20036;-71
2023/03/20 08:53:33;;;;;;;5.85;3.15;;;;;;;;;;5035953;28;20036;-72
2023/03/20 08:55:58;;;;;;;5.85;3.40;;;;;;;;;;5035465;28;20103;-71
2023/03/20 08:58:23;;;;;;;6.57;3.75;;;;;;;;;;5035836;28;20030;-72
2023/03/20 09:00:49;;;;;;;7.20;4.22;;;;;;;;;;5035532;28;20128;-72
2023/03/20 09:03:17;;;;;;;12.07;4.70;;;;;;;;;;5035495;28;20029;-72
2023/03/20 09:05:43;;;;;;;6.70;3.95;;;;;;;;;;5035529;28;20457;-73
2023/03/20 09:08:09;;;;;;;6.88;4.20;;;;;;;;;;5035406;28;20029;-73
2023/03/20 09:10:34;;;;;;;6.03;4.50;;;;;;;;;;5034186;28;20026;-72
2023/03/20 09:12:59;;;;;;;8.15;4.72;;;;;;;;;;5035805;28;20052;-72
2023/03/20 09:15:25;;;;;;;12.63;5.22;;;;;;;;;;5034055;28;20434;-73
2023/03/20 09:17:50;;;;;;;9.82;5.60;;;;;;;;;;5035425;28;20104;-75
2023/03/20 09:20:16;;;;;;;9.75;6.05;;;;;;;;;;5035784;28;20021;-72
2023/03/20 09:22:42;;;;;;;9.20;6.20;;;;;;;;;;5035332;28;20032;-72
2023/03/20 09:25:08;;;;;;;11.43;6.57;;;;;;;;;;5035252;28;20264;-73
2023/03/20 09:27:33;;;;;;;10.63;6.50;;;;;;;;;;5035106;28;20034;-73
2023/03/20 09:29:59;;;;;;;12.48;6.65;;;;;;;;;;5033564;28;20027;-73
2023/03/20 09:32:25;;;;;;;15.17;8.00;;;;;;;;;;5033087;28;20029;-73
2023/03/20 09:34:50;;;;;;;13.90;7.97;;;;;;;;;;5034032;28;20645;-74
2023/03/20 09:37:15;;;;;;;13.27;7.88;;;;;;;;;;5034788;28;20025;-73
2023/03/20 09:39:41;;;;;;;15.70;8.05;;;;;;;;;;5033625;28;20030;-72
2023/03/20 09:42:38;;;;;;;16.03;8.47;;;;;;;;;;5034844;28;20064;-73
2023/03/20 09:45:19;;;;;;;14.68;7.78;;;;;;;;;;5033562;28;20342;-73
2023/03/20 09:48:04;;;;;;;13.48;7.43;;;;;;;;;;5034864;28;20084;-72
2023/03/20 09:50:33;;;;;;;14.13;8.10;;;;;;;;;;5035139;28;20424;-73
2023/03/20 09:53:06;;;;;;;17.23;8.52;;;;;;;;;;5034909;28;20400;-73
2023/03/20 09:55:37;;;;;;;16.00;9.40;;;;;;;;;;5034972;28;20473;-73
2023/03/20 09:58:09;;;;;;;15.88;8.52;;;;;;;;;;5034707;28;20037;-73
2023/03/20 10:00:35;;;;;;;15.50;9.18;;;;;;;;;;5034947;28;20420;-73
2023/03/20 10:03:10;;;;;;;16.30;8.77;;;;;;;;;;5034546;28;20029;-73
2023/03/20 10:05:41;;;;;;;17.90;9.25;;;;;;;;;;5034681;28;20025;-74
2023/03/20 10:08:12;;;;;;;16.80;9.98;;;;;;;;;;5034739;28;20041;-73
2023/03/20 10:10:59;;;;;;;16.70;9.57;;;;;;;;;;5034566;28;20107;-73
2023/03/20 10:13:44;;;;;;;14.32;8.52;;;;;;;;;;5034425;28;20056;-72
2023/03/20 10:16:19;;;;;;;17.48;10.23;;;;;;;;;;5034375;28;20025;-73
2023/03/20 10:18:59;;;;;;;23.00;11.95;;;;;;;;;;5034514;28;20026;-72
2023/03/20 10:21:45;;;;;;;20.83;11.68;;;;;;;;;;5034309;28;20457;-73
2023/03/20 10:24:35;;;;;;;18.63;11.10;;;;;;;;;;5034273;28;20061;-72
2023/03/20 10:27:16;;;;;;;22.15;12.10;;;;;;;;;;5034086;28;20033;-72
2023/03/20 10:29:55;;;;;;;20.85;11.35;;;;;;;;;;5034259;28;20057;-72
2023/03/20 10:32:32;;;;;;;18.98;10.35;;;;;;;;;;5032459;28;20033;-73
2023/03/20 10:35:17;;;;;;;18.95;10.18;;;;;;;;;;5034229;28;20508;-73
2023/03/20 10:38:01;;;;;;;18.33;9.30;;;;;;;;;;5032523;28;20056;-73
2023/03/20 10:40:26;;;;;;;18.63;10.25;;;;;;;;;;5033753;28;20025;-73
2023/03/20 10:42:54;;;;;;;23.95;10.95;;;;;;;;;;5033365;28;20025;-71
2023/03/20 10:45:35;;;;;;;19.58;10.40;;;;;;;;;;5032417;28;20022;-73
2023/03/20 10:48:08;;;;;;;18.60;10.38;;;;;;;;;;5033408;28;20025;-73
2023/03/20 10:50:42;;;;;;;11.68;6.80;;;;;;;;;;5033627;28;20542;-73
2023/03/20 10:53:09;;;;;;;;;;;;;;;;;;5034007;28;20033;-73
2023/03/20 10:55:39;;;;;;;16.23;8.18;;;;;;;;;;5033582;28;20394;-73
2023/03/20 10:58:15;;;;;;;17.85;10.48;;;;;;;;;;5032636;28;20095;-74
2023/03/20 11:00:40;;;;;;;16.70;10.07;;;;;;;;;;5033362;28;20079;-72
2023/03/20 11:03:12;;;;;;;18.45;9.38;;;;;;;;;;5033235;28;20029;-73
2023/03/20 11:05:38;;;;;;;16.40;9.60;;;;;;;;;;5033650;28;20018;-73
2023/03/20 11:08:10;;;;;;;20.52;11.27;;;;;;;;;;5033157;28;20433;-72
2023/03/20 11:10:37;;;;;;;19.92;11.68;;;;;;;;;;5033276;28;20025;-74
2023/03/20 11:13:15;;;;;;;18.42;10.55;;;;;;;;;;5031904;28;20056;-73
2023/03/20 11:15:41;;;;;;;19.55;10.55;;;;;;;;;;5033368;28;20018;-72
2023/03/20 11:18:12;;;;;;;16.83;9.30;;;;;;;;;;5033010;28;20025;-72
2023/03/20 11:21:00;;;;;;;15.73;9.90;;;;;;;;;;5031812;28;20542;-74
2023/03/20 11:23:30;;;;;;;12.88;7.95;;;;;;;;;;5031869;28;20040;-72
2023/03/20 11:26:15;;;;;;;14.95;8.75;;;;;;;;;;5033234;28;20125;-72
2023/03/20 11:28:46;;;;;;;15.13;8.38;;;;;;;;;;5033390;28;20136;-73
2023/03/20 11:31:12;;;;;;;16.48;9.15;;;;;;;;;;5032912;28;20388;-74
2023/03/20 11:33:41;;;;;;;15.00;7.15;;;;;;;;;;5033109;28;20037;-72
2023/03/20 11:36:21;;;;;;;10.20;6.45;;;;;;;;;;5032981;28;20086;-74
2023/03/20 11:38:49;;;;;;;13.35;8.38;;;;;;;;;;5032884;28;20034;-73
2023/03/20 11:41:22;;;;;;;15.23;9.40;;;;;;;;;;5031598;28;20028;-73
2023/03/20 11:43:48;;;;;;;16.13;9.50;;;;;;;;;;5031677;28;20021;-76
2023/03/20 11:46:13;;;;;;;14.25;7.82;;;;;;;;;;5031608;28;20542;-73
2023/03/20 11:48:44;;;;;;;13.98;8.63;;;;;;;;;;5032573;28;20025;-74
2023/03/20 11:51:20;;;;;;;14.65;8.45;;;;;;;;;;5031018;28;20021;-74
2023/03/20 11:53:45;;;;;;;14.65;7.97;;;;;;;;;;5032636;28;20028;-72
2023/03/20 11:56:21;;;;;;;14.13;9.17;;;;;;;;;;5036243;28;20029;-73
2023/03/20 11:58:54;;;;;;;14.23;8.38;;;;;;;;;;5035050;28;20061;-72
2023/03/20 12:01:20;;;;;;;17.63;9.75;;;;;;;;;;5035110;28;20067;-73
2023/03/20 12:03:57;;;;;;;13.25;7.85;;;;;;;;;;5036652;28;20029;-76
2023/03/20 12:06:27;;;;;;;16.48;9.50;;;;;;;;;;5037290;28;20060;-73
2023/03/20 12:09:06;;;;;;;14.52;8.55;;;;;;;;;;5036926;28;20057;-74
2023/03/20 12:11:41;;;;;;;12.23;8.43;;;;;;;;;;5035219;28;20021;-76
2023/03/20 12:14:16;;;;;;;14.45;8.57;;;;;;;;;;5036473;28;20109;-78
2023/03/20 12:16:41;;;;;;;12.25;7.43;;;;;;;;;;5036512;28;20481;-75
2023/03/20 12:19:16;;;;;;;13.90;8.85;;;;;;;;;;5035145;28;20029;-74
2023/03/20 12:21:57;;;;;;;15.70;8.60;;;;;;;;;;5034971;28;20033;-74
2023/03/20 12:24:48;;;;;;;13.25;8.38;;;;;;;;;;5036554;28;20021;-74
2023/03/20 12:27:31;;;;;;;16.88;8.95;;;;;;;;;;5035229;28;20484;-74
2023/03/20 12:30:09;;;;;;;17.27;8.53;;;;;;;;;;5036277;28;20103;-74
2023/03/20 12:32:49;;;;;;;15.65;8.40;;;;;;;;;;5036484;28;20533;-75
2023/03/20 12:35:28;;;;;;;17.33;9.60;;;;;;;;;;5036472;28;20065;-75
2023/03/20 12:37:54;;;;;;;17.98;9.82;;;;;;;;;;5036000;28;20076;-73
2023/03/20 12:40:25;;;;;;;17.00;10.43;;;;;;;;;;5036448;28;20021;-73
2023/03/20 12:43:03;;;;;;;19.27;9.18;;;;;;;;;;5036259;28;20017;-73
2023/03/20 12:45:38;;;;;;;17.90;10.27;;;;;;;;;;5034935;28;20021;-72
2023/03/20 12:48:40;;;;;;;15.68;9.43;;;;;;;;;;5036008;28;20025;-72
2023/03/20 12:51:42;;;;;;;15.23;9.50;;;;;;;;;;5036152;28;20021;-73
2023/03/20 12:54:33;;;;;;;18.27;10.20;;;;;;;;;;5034929;28;20018;-73
2023/03/20 12:57:14;;;;;;;20.50;9.88;;;;;;;;;;5036230;28;20168;-73
2023/03/20 13:00:18;;;;;;;18.27;9.73;;;;;;;;;;5036750;28;20062;-72
2023/03/20 13:03:03;;;;;;;21.17;10.40;;;;;;;;;;5014472;28;20560;-73
2023/03/20 13:05:36;;;;;;;21.48;10.85;;;;;;;;;;5014355;28;20034;-72
2023/03/20 13:08:16;;;;;;;15.97;10.07;;;;;;;;;;5028311;28;20076;-72
2023/03/20 13:10:55;;;;;;;17.63;9.80;;;;;;;;;;5035793;28;20280;-72
2023/03/20 13:13:48;;;;;;;18.30;9.60;;;;;;;;;;5035843;28;20487;-72
2023/03/20 13:16:28;;;;;;;17.77;9.85;;;;;;;;;;5035517;28;20396;-72
2023/03/20 13:19:05;;;;;;;17.85;10.15;;;;;;;;;;5034541;28;20026;-73
2023/03/20 13:21:36;;;;;;;16.20;9.20;;;;;;;;;;5035705;28;20083;-72
2023/03/20 13:24:26;;;;;;;22.38;11.23;;;;;;;;;;5035479;28;20030;-73
2023/03/20 13:27:10;;;;;;;18.33;10.00;;;;;;;;;;5035672;28;20374;-72
2023/03/20 13:29:54;;;;;;;19.45;10.68;;;;;;;;;;5036125;28;20033;-76
2023/03/20 13:32:49;;;;;;;19.35;9.65;;;;;;;;;;5035719;28;20029;-71
2023/03/20 13:35:36;;;;;;;21.80;11.13;;;;;;;;;;5035442;28;20029;-71
2023/03/20 13:38:13;;;;;;;22.80;11.43;;;;;;;;;;5035731;28;20443;-71
2023/03/20 13:40:42;;;;;;;19.63;11.13;;;;;;;;;;5035454;28;20117;-72
2023/03/20 13:43:26;;;;;;;22.52;12.10;;;;;;;;;;5035264;28;20109;-72
2023/03/20 13:46:03;;;;;;;20.30;10.55;;;;;;;;;;5035614;28;20469;-72
2023/03/20 13:48:38;;;;;;;22.30;11.02;;;;;;;;;;5035915;28;20476;-71
2023/03/20 13:51:13;;;;;;;20.65;11.07;;;;;;;;;;5034990;28;20133;-72
2023/03/20 13:53:57;;;;;;;21.38;12.15;;;;;;;;;;5034967;28;20021;-72
2023/03/20 13:56:32;;;;;;;22.17;11.27;;;;;;;;;;5034545;28;20048;-72
2023/03/20 13:59:35;;;;;;;21.90;12.70;;;;;;;;;;5035046;28;20029;-72
2023/03/20 14:02:06;;;;;;;22.38;11.90;;;;;;;;;;5034343;28;20025;-72
2023/03/20 14:04:32;;;;;;;16.95;10.02;;;;;;;;;;5034515;28;20492;-72
2023/03/20 14:06:58;;;;;;;23.20;11.80;;;;;;;;;;5034917;28;20033;-73
2023/03/20 14:09:26;;;;;;;22.77;11.60;;;;;;;;;;5034526;28;20075;-72
2023/03/20 14:11:54;;;;;;;22.40;12.48;;;;;;;;;;5034256;28;20021;-72
2023/03/20 14:14:39;;;;;;;21.42;12.98;;;;;;;;;;5034216;28;20033;-72
2023/03/20 14:17:26;;;;;;;21.75;13.02;;;;;;;;;;5032190;28;20025;-72
2023/03/20 14:19:52;;;;;;;21.65;12.32;;;;;;;;;;5034282;28;20051;-72
2023/03/20 14:22:20;;;;;;;20.92;12.80;;;;;;;;;;5034104;28;20040;-72
2023/03/20 14:25:28;;;;;;;23.65;11.90;;;;;;;;;;5033990;28;20017;-72
2023/03/20 14:28:18;;;;;;;24.55;11.65;;;;;;;;;;5034299;28;20040;-73
2023/03/20 14:30:45;;;;;;;21.60;12.45;;;;;;;;;;5025977;28;20037;-73
2023/03/20 14:33:13;;;;;;;22.63;12.50;;;;;;;;;;5034531;28;20036;-73
2023/03/20 14:35:50;;;;;;;26.00;12.73;;;;;;;;;;5034049;28;20108;-72
2023/03/20 14:38:54;;;;;;;23.13;12.70;;;;;;;;;;5034201;28;20036;-73
2023/03/20 14:41:32;;;;;;;21.33;12.75;;;;;;;;;;5022772;28;20034;-77
2023/03/20 14:43:57;;;;;;;23.55;13.35;;;;;;;;;;5032094;28;20025;-72
2023/03/20 14:46:41;;;;;;;24.88;13.88;;;;;;;;;;5033464;28;20025;-70
2023/03/20 14:49:32;;;;;;;22.92;13.48;;;;;;;;;;5034194;28;20029;-72